Time;durP1;ratioP1;P1;durP2;ratioP2;P2;SDS_P1;SDS_P2;PMS_P1;PMS_P2;Temp;Humidity;BMP_temperature;BMP_pressure;BME280_temperature;BME280_humidity;BME280_pressure;Samples;Min_cycle;Max_cycle;Signal;HPM_P1;HPM_P2
2022/07/27 00:01:59;;;;;;;;;;;;;;;25.10;77.88;96441.47;599649;236;69623;-69
2022/07/27 00:04:26;;;;;;;;;;;;;;;25.11;78.10;96448.45;599647;236;68504;-69
2022/07/27 00:06:54;;;;;;;;;;;;;;;25.10;78.33;96452.23;599686;236;63666;-69
2022/07/27 00:09:22;;;;;;;;;;;;;;;25.11;78.20;96451.14;599629;236;68864;-69
2022/07/27 00:11:49;;;;;;;;;;;;;;;25.10;78.09;96444.98;599648;236;67450;-69
2022/07/27 00:14:17;;;;;;;;;;;;;;;25.10;77.83;96449.55;599627;236;66086;-69
2022/07/27 00:16:44;;;;;;;;;;;;;;;25.10;78.06;96444.98;599645;236;68595;-69
2022/07/27 00:19:12;;;;;;;;;;;;;;;25.09;78.11;96446.06;599694;236;66437;-69
2022/07/27 00:21:40;;;;;;;;;;;;;;;25.10;78.09;96447.67;599697;236;62776;-69
2022/07/27 00:24:07;;;;;;;;;;;;;;;25.09;78.19;96446.06;599633;236;66407;-69
2022/07/27 00:26:35;;;;;;;;;;;;;;;25.10;78.34;96452.23;599618;236;66407;-69
2022/07/27 00:29:03;;;;;;;;;;;;;;;25.09;77.93;96446.06;599668;236;62849;-69
2022/07/27 00:31:30;;;;;;;;;;;;;;;25.09;78.23;96450.66;599626;236;67390;-69
2022/07/27 00:33:58;;;;;;;;;;;;;;;25.10;78.02;96454.92;599729;234;66198;-69
2022/07/27 00:36:25;;;;;;;;;;;;;;;25.09;78.00;96456.82;599613;236;64875;-69
2022/07/27 00:38:53;;;;;;;;;;;;;;;25.09;77.89;96461.41;599612;236;68471;-69
2022/07/27 00:41:20;;;;;;;;;;;;;;;25.10;78.02;96460.30;599636;236;69689;-69
2022/07/27 00:43:52;;;;;;;;;;;;;;;25.09;77.86;96458.72;599654;236;62804;-69
2022/07/27 00:46:19;;;;;;;;;;;;;;;25.09;77.92;96464.89;599682;236;66813;-69
2022/07/27 00:48:47;;;;;;;;;;;;;;;25.10;77.99;96462.98;599624;236;66565;-69
2022/07/27 00:51:15;;;;;;;;;;;;;;;25.09;78.12;96462.20;599664;236;64847;-69
2022/07/27 00:53:43;;;;;;;;;;;;;;;25.09;78.25;96453.34;599638;236;68734;-69
2022/07/27 00:56:11;;;;;;;;;;;;;;;25.09;78.61;96453.34;599622;236;66242;-69
2022/07/27 00:58:39;;;;;;;;;;;;;;;25.09;78.28;96456.82;599749;236;62881;-69
2022/07/27 01:01:07;;;;;;;;;;;;;;;25.09;78.53;96456.82;599636;236;68012;-69
2022/07/27 01:03:34;;;;;;;;;;;;;;;25.09;78.52;96445.28;599653;236;68432;-69
2022/07/27 01:06:02;;;;;;;;;;;;;;;25.10;79.05;96452.23;599634;236;64850;-69
2022/07/27 01:08:29;;;;;;;;;;;;;;;25.09;78.71;96451.44;599647;236;68802;-69
2022/07/27 01:10:57;;;;;;;;;;;;;;;25.09;78.75;96443.38;599699;236;69047;-69
2022/07/27 01:13:27;;;;;;;;;;;;;;;25.09;78.94;96447.97;599629;236;43248;-69
2022/07/27 01:15:55;;;;;;;;;;;;;;;25.09;79.11;96445.28;599638;236;69127;-69
2022/07/27 01:18:27;;;;;;;;;;;;;;;25.09;79.19;96445.28;599657;236;69337;-69
2022/07/27 01:20:55;;;;;;;;;;;;;;;25.08;79.37;96443.70;599665;236;64932;-70
2022/07/27 01:23:26;;;;;;;;;;;;;;;25.08;79.59;96443.70;599653;236;68623;-70
2022/07/27 01:25:54;;;;;;;;;;;;;;;25.07;79.42;96440.20;599680;236;68517;-70
2022/07/27 01:28:21;;;;;;;;;;;;;;;25.08;79.55;96449.08;599628;236;63879;-70
2022/07/27 01:30:49;;;;;;;;;;;;;;;25.08;79.39;96444.49;599591;234;67420;-70
2022/07/27 01:33:16;;;;;;;;;;;;;;;25.08;79.28;96449.08;599640;236;68527;-70
2022/07/27 01:35:44;;;;;;;;;;;;;;;25.08;79.78;96449.87;599647;236;64824;-70
2022/07/27 01:38:12;;;;;;;;;;;;;;;25.08;79.82;96451.77;599667;236;68679;-70
2022/07/27 01:40:39;;;;;;;;;;;;;;;25.08;79.38;96449.08;599619;236;68383;-73
2022/07/27 01:43:07;;;;;;;;;;;;;;;25.08;79.63;96443.70;599603;236;65056;-74
2022/07/27 01:45:34;;;;;;;;;;;;;;;25.07;79.81;96450.95;599656;236;66493;-73
2022/07/27 01:48:02;;;;;;;;;;;;;;;25.07;80.00;96452.86;599635;236;66374;-73
2022/07/27 01:50:29;;;;;;;;;;;;;;;25.08;79.61;96457.94;599686;236;62765;-73
2022/07/27 01:52:57;;;;;;;;;;;;;;;25.07;79.84;96458.23;599624;236;66475;-73
2022/07/27 01:55:24;;;;;;;;;;;;;;;25.08;79.99;96454.46;599557;236;68234;-73
2022/07/27 01:57:52;;;;;;;;;;;;;;;25.07;80.22;96450.95;599625;236;62889;-73
2022/07/27 02:00:19;;;;;;;;;;;;;;;25.07;80.31;96452.86;599639;236;68677;-73
2022/07/27 02:02:47;;;;;;;;;;;;;;;25.07;80.06;96455.55;599651;236;68471;-73
2022/07/27 02:05:14;;;;;;;;;;;;;;;25.07;80.44;96459.02;599623;236;62793;-73
2022/07/27 02:07:42;;;;;;;;;;;;;;;25.07;79.85;96452.86;599626;236;68640;-73
2022/07/27 02:10:10;;;;;;;;;;;;;;;25.07;79.82;96450.17;599578;236;68503;-72
2022/07/27 02:12:38;;;;;;;;;;;;;;;25.06;79.62;96444.00;599623;236;65080;-71
2022/07/27 02:15:07;;;;;;;;;;;;;;;25.07;79.93;96455.55;599644;235;66262;-71
2022/07/27 02:17:35;;;;;;;;;;;;;;;25.07;79.71;96469.77;599687;236;68611;-72
2022/07/27 02:20:03;;;;;;;;;;;;;;;25.07;79.67;96469.77;599603;236;65004;-71
2022/07/27 02:22:31;;;;;;;;;;;;;;;25.08;79.83;96459.84;599627;236;68858;-71
2022/07/27 02:24:58;;;;;;;;;;;;;;;25.06;79.90;96460.13;599632;236;66567;-71
2022/07/27 02:27:26;;;;;;;;;;;;;;;25.07;80.06;96463.61;599658;236;63783;-71
2022/07/27 02:29:53;;;;;;;;;;;;;;;25.07;80.07;96468.98;599721;236;67407;-71
2022/07/27 02:32:21;;;;;;;;;;;;;;;25.07;80.27;96466.30;599666;236;66470;-71
2022/07/27 02:34:48;;;;;;;;;;;;;;;25.06;80.83;96462.82;599669;236;62762;-71
2022/07/27 02:37:16;;;;;;;;;;;;;;;25.06;80.88;96478.16;599636;236;68649;-71
2022/07/27 02:39:43;;;;;;;;;;;;;;;25.05;81.01;96477.38;599667;236;68578;-71
2022/07/27 02:42:11;;;;;;;;;;;;;;;25.05;80.30;96484.66;599703;236;66144;-71
2022/07/27 02:44:38;;;;;;;;;;;;;;;25.05;80.72;96488.13;599633;234;68761;-71
2022/07/27 02:47:06;;;;;;;;;;;;;;;25.05;81.10;96485.45;599667;236;69404;-72
2022/07/27 02:49:33;;;;;;;;;;;;;;;25.05;81.11;96488.13;599649;236;64851;-71
2022/07/27 02:52:01;;;;;;;;;;;;;;;25.04;81.03;96486.53;599646;236;66419;-71
2022/07/27 02:54:31;;;;;;;;;;;;;;;25.05;81.05;96493.51;599668;236;66410;-71
2022/07/27 02:56:58;;;;;;;;;;;;;;;25.05;80.93;96487.34;599318;236;63746;-72
2022/07/27 02:59:25;;;;;;;;;;;;;;;25.03;80.89;96496.49;599639;236;67306;-72
2022/07/27 03:01:53;;;;;;;;;;;;;;;25.06;80.86;96507.73;599692;236;67171;-72
2022/07/27 03:04:20;;;;;;;;;;;;;;;25.06;81.00;96505.05;599618;236;62951;-72
2022/07/27 03:06:48;;;;;;;;;;;;;;;25.05;80.51;96508.85;599712;236;66457;-72
2022/07/27 03:09:15;;;;;;;;;;;;;;;25.05;80.38;96517.70;599597;236;69013;-72
2022/07/27 03:11:43;;;;;;;;;;;;;;;25.05;80.23;96524.98;599662;236;64838;-72
2022/07/27 03:14:10;;;;;;;;;;;;;;;25.05;81.02;96530.36;599654;236;67374;-72
2022/07/27 03:16:38;;;;;;;;;;;;;;;25.06;81.02;96531.94;599646;236;66459;-72
2022/07/27 03:19:05;;;;;;;;;;;;;;;25.05;80.69;96535.73;599670;236;63152;-72
2022/07/27 03:21:33;;;;;;;;;;;;;;;25.05;80.49;96536.52;599660;236;67455;-72
2022/07/27 03:24:00;;;;;;;;;;;;;;;25.05;80.56;96541.11;599652;236;68532;-72
2022/07/27 03:26:29;;;;;;;;;;;;;;;25.06;80.57;96542.69;599680;236;64645;-72
2022/07/27 03:28:57;;;;;;;;;;;;;;;25.06;80.75;96545.38;599650;236;68346;-72
2022/07/27 03:31:24;;;;;;;;;;;;;;;25.05;80.86;96544.59;599617;236;66579;-72
2022/07/27 03:33:52;;;;;;;;;;;;;;;25.05;80.52;96546.48;599668;236;62776;-72
2022/07/27 03:36:20;;;;;;;;;;;;;;;25.05;80.90;96551.87;599634;236;69016;-72
2022/07/27 03:38:47;;;;;;;;;;;;;;;25.05;81.15;96559.94;599650;236;68675;-72
2022/07/27 03:41:15;;;;;;;;;;;;;;;25.05;80.85;96562.62;599667;236;62723;-72
2022/07/27 03:43:43;;;;;;;;;;;;;;;25.03;80.58;96566.39;599664;236;68747;-72
2022/07/27 03:46:11;;;;;;;;;;;;;;;25.05;80.77;96568.00;599669;235;68413;-72
2022/07/27 03:48:39;;;;;;;;;;;;;;;25.05;81.14;96568.00;599645;236;62843;-72
2022/07/27 03:51:06;;;;;;;;;;;;;;;25.04;80.90;96559.11;599663;236;68542;-72
2022/07/27 03:53:34;;;;;;;;;;;;;;;25.03;80.52;96558.33;599641;236;68544;-72
2022/07/27 03:56:01;;;;;;;;;;;;;;;25.03;81.15;96561.02;599604;236;64892;-72
2022/07/27 03:58:29;;;;;;;;;;;;;;;25.03;80.38;96561.02;599651;236;69405;-72
2022/07/27 04:00:56;;;;;;;;;;;;;;;25.03;80.46;96561.02;599643;236;66513;-69
2022/07/27 04:03:24;;;;;;;;;;;;;;;25.04;81.05;96561.80;599656;236;66072;-71
2022/07/27 04:05:51;;;;;;;;;;;;;;;25.05;80.89;96562.62;599654;236;66382;-72
2022/07/27 04:08:20;;;;;;;;;;;;;;;25.03;80.87;96571.77;599640;236;68628;-72
2022/07/27 04:10:47;;;;;;;;;;;;;;;25.03;81.45;96571.77;599692;236;62724;-72
2022/07/27 04:13:17;;;;;;;;;;;;;;;25.03;81.02;96570.98;599646;236;68626;-72
2022/07/27 04:15:44;;;;;;;;;;;;;;;25.03;81.05;96566.39;599650;236;67125;-72
2022/07/27 04:18:12;;;;;;;;;;;;;;;25.03;81.06;96573.67;599611;236;62752;-72
2022/07/27 04:20:39;;;;;;;;;;;;;;;25.03;80.94;96579.05;599652;236;66549;-72
2022/07/27 04:23:07;;;;;;;;;;;;;;;25.03;80.65;96581.73;599668;236;68849;-72
2022/07/27 04:25:34;;;;;;;;;;;;;;;25.03;81.12;96582.52;599683;236;65977;-72
2022/07/27 04:28:02;;;;;;;;;;;;;;;25.03;81.23;96584.42;599644;236;68553;-72
2022/07/27 04:30:29;;;;;;;;;;;;;;;25.02;80.71;96580.16;599633;236;69460;-72
2022/07/27 04:32:57;;;;;;;;;;;;;;;25.02;81.15;96578.26;599662;236;65159;-72
2022/07/27 04:35:24;;;;;;;;;;;;;;;25.02;81.41;96572.88;599628;236;66417;-72
2022/07/27 04:37:52;;;;;;;;;;;;;;;25.03;80.94;96581.73;599683;236;67347;-72
2022/07/27 04:40:19;;;;;;;;;;;;;;;25.02;81.30;96582.84;599641;236;62811;-72
2022/07/27 04:42:47;;;;;;;;;;;;;;;25.01;81.49;96584.72;599637;236;68309;-72
2022/07/27 04:45:14;;;;;;;;;;;;;;;25.01;81.34;96583.92;599779;236;68487;-69
2022/07/27 04:47:42;;;;;;;;;;;;;;;25.02;81.45;96593.59;599506;236;65011;-69
2022/07/27 04:50:09;;;;;;;;;;;;;;;25.02;81.77;96590.91;599671;236;66743;-69
2022/07/27 04:52:37;;;;;;;;;;;;;;;25.01;81.31;96589.30;599615;236;67357;-69
2022/07/27 04:55:05;;;;;;;;;;;;;;;25.01;81.44;96595.47;599574;236;64985;-69
2022/07/27 04:57:33;;;;;;;;;;;;;;;25.01;81.53;96598.16;599621;236;69491;-69
2022/07/27 05:00:00;;;;;;;;;;;;;;;25.02;81.07;96599.77;598575;236;68474;-69
2022/07/27 05:02:30;;;;;;;;;;;;;;;25.01;81.56;96594.69;599496;236;62791;-69
2022/07/27 05:04:59;;;;;;;;;;;;;;;25.01;81.65;96603.53;599670;236;68390;-69
2022/07/27 05:07:26;;;;;;;;;;;;;;;25.00;81.25;96599.27;599629;236;66403;-69
2022/07/27 05:09:54;;;;;;;;;;;;;;;25.01;81.79;96611.59;599639;236;62815;-69
2022/07/27 05:12:21;;;;;;;;;;;;;;;25.00;81.21;96604.64;599636;236;66219;-69
2022/07/27 05:14:49;;;;;;;;;;;;;;;25.00;81.44;96610.02;599607;236;66209;-69
2022/07/27 05:17:16;;;;;;;;;;;;;;;25.01;81.74;96606.22;599607;236;64848;-69
2022/07/27 05:19:44;;;;;;;;;;;;;;;25.00;81.36;96615.40;599535;236;67058;-69
2022/07/27 05:22:11;;;;;;;;;;;;;;;25.00;81.70;96611.92;599549;236;68319;-69
2022/07/27 05:24:39;;;;;;;;;;;;;;;25.00;81.60;96610.02;599641;236;65955;-69
2022/07/27 05:27:07;;;;;;;;;;;;;;;25.00;81.30;96607.33;599154;236;66254;-69
2022/07/27 05:29:34;;;;;;;;;;;;;;;25.00;81.74;96601.95;599631;236;68296;-69
2022/07/27 05:32:02;;;;;;;;;;;;;;;24.99;81.56;96608.45;599528;236;62829;-69
2022/07/27 05:34:30;;;;;;;;;;;;;;;25.00;81.54;96609.23;599585;236;68633;-69
2022/07/27 05:36:57;;;;;;;;;;;;;;;25.00;81.85;96603.86;599604;236;68722;-69
2022/07/27 05:39:25;;;;;;;;;;;;;;;25.00;81.33;96615.40;599680;236;62715;-69
2022/07/27 05:41:52;;;;;;;;;;;;;;;25.00;81.77;96609.23;599617;236;68663;-69
2022/07/27 05:44:20;;;;;;;;;;;;;;;24.99;81.55;96605.76;599636;236;69435;-69
2022/07/27 05:46:47;;;;;;;;;;;;;;;25.00;81.30;96606.55;599605;236;66029;-69
2022/07/27 05:49:15;;;;;;;;;;;;;;;24.99;81.61;96603.06;599427;236;68593;-67
2022/07/27 05:51:42;;;;;;;;;;;;;;;25.00;81.53;96609.23;598887;234;68403;-68
2022/07/27 05:54:10;;;;;;;;;;;;;;;25.00;78.25;96615.40;599148;235;65083;-68
2022/07/27 05:56:37;;;;;;;;;;;;;;;24.97;79.97;96607.16;596585;235;66389;-68
2022/07/27 05:59:05;;;;;;;;;;;;;;;25.01;80.51;96610.81;596332;236;66501;-68
2022/07/27 06:01:32;;;;;;;;;;;;;;;25.00;81.01;96615.40;594605;238;62769;-68
2022/07/27 06:04:00;;;;;;;;;;;;;;;25.00;81.44;96609.23;594621;238;66624;-68
2022/07/27 06:09:13;;;;;;;;;;;;;;;24.99;81.22;96605.76;594887;238;62849;-71
2022/07/27 06:11:40;;;;;;;;;;;;;;;24.99;81.09;96602.25;594835;238;68956;-71
2022/07/27 06:14:08;;;;;;;;;;;;;;;24.97;80.86;96605.27;597351;237;69446;-72
2022/07/27 06:16:36;;;;;;;;;;;;;;;24.97;77.33;96602.58;597894;237;65966;-71
2022/07/27 06:19:04;;;;;;;;;;;;;;;25.01;77.36;96608.13;595889;236;68696;-71
2022/07/27 06:21:32;;;;;;;;;;;;;;;25.02;79.22;96609.73;594801;238;69527;-71
2022/07/27 06:23:59;;;;;;;;;;;;;;;25.02;80.14;96607.04;594754;238;62856;-68
2022/07/27 06:26:27;;;;;;;;;;;;;;;25.02;79.28;96607.83;594735;238;66425;-70
2022/07/27 06:28:57;;;;;;;;;;;;;;;25.06;78.64;96602.63;594803;238;67349;-69
2022/07/27 06:31:25;;;;;;;;;;;;;;;25.04;78.94;96604.81;594811;238;62995;-70
2022/07/27 06:33:53;;;;;;;;;;;;;;;25.05;80.85;96602.95;594819;238;68952;-67
2022/07/27 06:36:21;;;;;;;;;;;;;;;25.05;80.90;96611.02;594807;238;68572;-66
2022/07/27 06:38:49;;;;;;;;;;;;;;;25.03;81.28;96595.97;594805;238;65780;-70
2022/07/27 06:41:17;;;;;;;;;;;;;;;25.06;78.56;96601.83;594780;238;68383;-70
2022/07/27 06:43:44;;;;;;;;;;;;;;;25.07;78.68;96600.72;594853;238;66269;-71
2022/07/27 06:46:13;;;;;;;;;;;;;;;25.06;79.19;96596.45;594833;238;62738;-71
2022/07/27 06:48:43;;;;;;;;;;;;;;;25.06;80.52;96596.45;594793;238;68724;-71
2022/07/27 06:51:10;;;;;;;;;;;;;;;25.06;81.20;96596.45;594710;238;68968;-70
2022/07/27 06:53:38;;;;;;;;;;;;;;;25.06;81.18;96591.08;594788;238;62804;-67
2022/07/27 06:56:07;;;;;;;;;;;;;;;25.06;79.57;96591.08;594145;238;69532;-67
2022/07/27 06:58:36;;;;;;;;;;;;;;;25.07;79.52;96588.06;593578;239;68578;-67
2022/07/27 07:01:04;;;;;;;;;;;;;;;25.07;80.40;96589.97;593510;239;62975;-67
2022/07/27 07:03:31;;;;;;;;;;;;;;;25.06;80.79;96585.70;593495;239;68681;-72
2022/07/27 07:05:59;;;;;;;;;;;;;;;25.06;80.80;96591.08;593466;239;69620;-68
2022/07/27 07:08:26;;;;;;;;;;;;;;;25.08;75.47;96576.23;593559;239;64971;-68
2022/07/27 07:10:54;;;;;;;;;;;;;;;25.11;77.45;96572.92;593443;239;69302;-67
2022/07/27 07:13:22;;;;;;;;;;;;;;;25.14;74.79;96579.58;593540;239;68951;-69
2022/07/27 07:15:50;;;;;;;;;;;;;;;25.15;75.11;96573.13;593463;239;64922;-69
2022/07/27 07:18:17;;;;;;;;;;;;;;;25.15;76.20;96581.19;593343;239;68878;-68
2022/07/27 07:20:45;;;;;;;;;;;;;;;25.14;77.81;96579.58;592576;239;68481;-67
2022/07/27 07:23:12;;;;;;;;;;;;;;;25.13;78.76;96575.31;592398;239;62444;-68
2022/07/27 07:25:40;;;;;;;;;;;;;;;25.13;78.91;96576.11;592512;239;66599;-68
2022/07/27 07:28:07;;;;;;;;;;;;;;;25.14;79.63;96574.20;593114;239;66525;-69
2022/07/27 07:30:35;;;;;;;;;;;;;;;25.12;80.79;96568.33;593125;239;64886;-68
2022/07/27 07:33:02;;;;;;;;;;;;;;;25.12;79.98;96568.33;593142;239;66596;-67
2022/07/27 07:35:30;;;;;;;;;;;;;;;25.11;80.19;96567.55;593480;239;68619;-69
2022/07/27 07:37:58;;;;;;;;;;;;;;;25.11;79.94;96564.86;593461;239;65113;-68
2022/07/27 07:40:25;;;;;;;;;;;;;;;25.11;79.80;96564.86;593494;239;69525;-69
2022/07/27 07:42:54;;;;;;;;;;;;;;;25.11;79.16;96567.55;593496;239;66472;-69
2022/07/27 07:45:23;;;;;;;;;;;;;;;25.12;78.72;96568.33;593398;239;65956;-73
2022/07/27 07:47:51;;;;;;;;;;;;;;;25.12;78.76;96574.50;593141;239;66467;-73
2022/07/27 07:50:19;;;;;;;;;;;;;;;25.13;78.63;96569.94;593449;239;68778;-68
2022/07/27 07:52:50;;;;;;;;;;;;;;;25.13;78.51;96570.73;593431;239;66044;-68
2022/07/27 07:55:22;;;;;;;;;;;;;;;25.12;78.40;96566.44;593474;238;68673;-68
2022/07/27 07:57:50;;;;;;;;;;;;;;;25.13;78.43;96561.88;593308;238;68320;-67
2022/07/27 08:00:18;;;;;;;;;;;;;;;25.13;78.71;96559.19;593359;239;62874;-68
2022/07/27 08:02:48;;;;;;;;;;;;;;;25.14;78.67;96560.76;593486;239;68672;-68
2022/07/27 08:05:16;;;;;;;;;;;;;;;25.12;78.74;96552.98;593465;239;68954;-68
2022/07/27 08:07:44;;;;;;;;;;;;;;;25.13;78.93;96559.19;593152;239;66306;-68
2022/07/27 08:10:13;;;;;;;;;;;;;;;25.14;78.96;96558.86;593472;239;68922;-73
2022/07/27 08:12:42;;;;;;;;;;;;;;;25.14;79.09;96552.69;593486;239;66666;-72
2022/07/27 08:15:11;;;;;;;;;;;;;;;25.14;79.82;96555.38;593451;239;65090;-72
2022/07/27 08:17:38;;;;;;;;;;;;;;;25.13;80.57;96564.56;593562;239;66635;-73
2022/07/27 08:20:07;;;;;;;;;;;;;;;25.12;81.20;96563.74;593472;239;68708;-71
2022/07/27 08:22:34;;;;;;;;;;;;;;;25.12;80.72;96557.58;593491;239;65092;-72
2022/07/27 08:25:02;;;;;;;;;;;;;;;25.12;80.40;96563.74;593428;239;68400;-72
2022/07/27 08:27:33;;;;;;;;;;;;;;;25.12;80.37;96561.05;593445;239;68423;-72
2022/07/27 08:30:00;;;;;;;;;;;;;;;25.12;80.39;96560.27;593457;239;65045;-67
2022/07/27 08:32:28;;;;;;;;;;;;;;;25.13;80.42;96557.28;593483;239;69803;-68
2022/07/27 08:35:19;;;;;;;;;;;;;;;25.12;80.67;96557.58;593313;239;66415;-67
2022/07/27 08:37:47;;;;;;;;;;;;;;;25.12;80.46;96558.36;593519;239;65122;-68
2022/07/27 08:40:15;;;;;;;;;;;;;;;25.13;80.56;96556.49;593501;239;69767;-74
2022/07/27 08:42:42;;;;;;;;;;;;;;;25.13;80.61;96562.66;593472;239;66428;-74
2022/07/27 08:45:12;;;;;;;;;;;;;;;25.13;80.55;96559.19;593490;239;62761;-72
2022/07/27 08:47:40;;;;;;;;;;;;;;;25.14;80.26;96558.07;592688;239;66673;-72
2022/07/27 08:50:26;;;;;;;;;;;;;;;25.14;80.28;96550.00;593393;239;68574;-73
2022/07/27 08:52:59;;;;;;;;;;;;;;;25.14;80.19;96555.38;593459;239;65116;-72
2022/07/27 08:55:27;;;;;;;;;;;;;;;25.15;80.31;96554.30;593413;238;69021;-72
2022/07/27 08:57:55;;;;;;;;;;;;;;;25.14;80.68;96552.69;593471;239;68561;-72
2022/07/27 09:00:22;;;;;;;;;;;;;;;25.13;80.69;96543.05;593449;239;63051;-72
2022/07/27 09:02:50;;;;;;;;;;;;;;;25.14;80.46;96552.69;593465;239;68564;-72
2022/07/27 09:05:18;;;;;;;;;;;;;;;25.14;80.70;96547.31;593465;239;66323;-72
2022/07/27 09:07:45;;;;;;;;;;;;;;;25.14;80.68;96542.73;593396;239;65475;-71
2022/07/27 09:10:14;;;;;;;;;;;;;;;25.14;80.73;96537.34;593414;239;68683;-72
2022/07/27 09:12:42;;;;;;;;;;;;;;;25.13;80.58;96541.15;592154;238;68404;-73
2022/07/27 09:15:11;;;;;;;;;;;;;;;25.16;80.24;96547.84;591716;239;65063;-73
2022/07/27 09:17:40;;;;;;;;;;;;;;;25.14;80.22;96542.73;590668;239;68408;-73
2022/07/27 09:20:10;;;;;;;;;;;;;;;25.15;80.17;96536.27;591641;239;68765;-73
2022/07/27 09:22:39;;;;;;;;;;;;;;;25.15;80.06;96540.86;591866;239;62941;-72
2022/07/27 09:25:08;;;;;;;;;;;;;;;25.15;80.02;96541.64;591637;239;74168;-72
2022/07/27 09:27:36;;;;;;;;;;;;;;;25.16;80.14;96537.08;589454;237;67601;-72
2022/07/27 09:30:06;;;;;;;;;;;;;;;25.16;79.86;96537.08;589978;240;63053;-72
2022/07/27 09:32:33;;;;;;;;;;;;;;;25.16;79.72;96537.08;589907;240;68507;-72
2022/07/27 09:35:21;;;;;;;;;;;;;;;25.16;79.98;96537.08;589929;240;66620;-72
2022/07/27 09:37:48;;;;;;;;;;;;;;;25.16;79.81;96539.77;589974;240;64981;-74
2022/07/27 09:40:18;;;;;;;;;;;;;;;25.17;79.76;96538.66;589845;240;68466;-73
2022/07/27 09:42:45;;;;;;;;;;;;;;;25.17;79.97;96534.06;589929;240;68420;-74
2022/07/27 09:45:33;;;;;;;;;;;;;;;25.17;80.18;96535.97;589977;240;62693;-74
2022/07/27 09:48:08;;;;;;;;;;;;;;;25.16;80.44;96529.80;589741;240;68971;-74
2022/07/27 09:50:39;;;;;;;;;;;;;;;25.16;80.11;96526.33;589628;240;67465;-74
2022/07/27 09:53:13;;;;;;;;;;;;;;;25.16;80.18;96527.11;589876;240;64905;-74
2022/07/27 09:55:41;;;;;;;;;;;;;;;25.16;80.01;96526.33;592406;236;68680;-73
2022/07/27 09:58:09;;;;;;;;;;;;;;;25.16;79.87;96526.33;600186;236;66201;-75
2022/07/27 10:00:37;;;;;;;;;;;;;;;25.16;80.01;96518.26;600219;236;64868;-75
2022/07/27 10:03:05;;;;;;;;;;;;;;;25.16;80.04;96513.67;600309;236;68697;-69
2022/07/27 10:05:33;;;;;;;;;;;;;;;25.17;79.07;96522.52;600301;236;69457;-73
2022/07/27 10:08:01;;;;;;;;;;;;;;;25.17;78.99;96517.93;600142;236;65112;-71
2022/07/27 10:10:28;;;;;;;;;;;;;;;25.17;78.99;96520.63;599451;236;69625;-71
2022/07/27 10:12:56;;;;;;;;;;;;;;;25.18;79.09;96516.84;595982;236;67963;-73
2022/07/27 10:15:24;;;;;;;;;;;;;;;25.19;79.12;96514.95;600281;236;65017;-73
2022/07/27 10:17:52;;;;;;;;;;;;;;;25.19;79.33;96520.33;600188;236;69645;-73
2022/07/27 10:20:20;;;;;;;;;;;;;;;25.20;79.22;96511.14;600200;235;68563;-73
2022/07/27 10:22:51;;;;;;;;;;;;;;;25.23;76.32;96521.28;599703;236;62833;-74
2022/07/27 10:25:19;;;;;;;;;;;;;;;25.22;78.00;96515.11;599594;236;68634;-73
2022/07/27 10:27:48;;;;;;;;;;;;;;;25.21;78.72;96515.44;600375;236;68456;-73
2022/07/27 10:30:17;;;;;;;;;;;;;;;25.20;80.25;96522.69;600247;236;65018;-74
2022/07/27 10:32:46;;;;;;;;;;;;;;;25.19;79.65;96520.33;600308;236;69013;-74
2022/07/27 10:35:21;;;;;;;;;;;;;;;25.19;79.53;96528.39;600267;236;69747;-70
2022/07/27 10:37:50;;;;;;;;;;;;;;;25.18;79.68;96518.72;598261;235;64960;-73
2022/07/27 10:40:34;;;;;;;;;;;;;;;25.19;79.72;96525.70;599779;235;67488;-73
2022/07/27 10:43:20;;;;;;;;;;;;;;;25.18;79.87;96524.91;600346;236;67408;-73
2022/07/27 10:45:49;;;;;;;;;;;;;;;25.19;79.78;96523.02;600392;236;65104;-73
2022/07/27 10:48:36;;;;;;;;;;;;;;;25.18;79.50;96524.91;600294;236;66386;-69
2022/07/27 10:51:04;;;;;;;;;;;;;;;25.19;79.52;96514.95;600121;236;69606;-68
2022/07/27 10:53:33;;;;;;;;;;;;;;;25.18;79.40;96507.97;600320;236;62813;-67
2022/07/27 10:56:01;;;;;;;;;;;;;;;25.19;77.97;96509.57;600452;236;68536;-67
2022/07/27 10:58:30;;;;;;;;;;;;;;;25.22;79.18;96511.63;590480;236;69907;-67
2022/07/27 11:00:58;;;;;;;;;;;;;;;25.20;80.02;96513.83;600727;236;62743;-68
2022/07/27 11:03:33;;;;;;;;;;;;;;;25.21;80.48;96507.38;600712;236;66748;-68
2022/07/27 11:06:06;;;;;;;;;;;;;;;25.20;80.46;96503.08;600656;236;68504;-68
2022/07/27 11:08:34;;;;;;;;;;;;;;;25.19;80.38;96514.95;600687;236;64913;-68
2022/07/27 11:11:02;;;;;;;;;;;;;;;25.19;80.03;96504.19;600670;236;68852;-67
2022/07/27 11:13:30;;;;;;;;;;;;;;;25.19;79.74;96509.57;600706;236;68952;-67
2022/07/27 11:15:59;;;;;;;;;;;;;;;25.20;78.86;96506.55;600677;236;62746;-67
2022/07/27 11:18:27;;;;;;;;;;;;;;;25.20;78.25;96503.08;600699;236;68641;-67
2022/07/27 11:21:15;;;;;;;;;;;;;;;25.20;78.03;96506.55;600734;236;68663;-68
2022/07/27 11:23:43;;;;;;;;;;;;;;;25.20;78.05;96500.39;600680;236;65186;-67
2022/07/27 11:26:11;;;;;;;;;;;;;;;25.22;77.37;96500.88;600613;236;68921;-68
2022/07/27 11:28:39;;;;;;;;;;;;;;;25.21;77.90;96500.09;600718;236;69343;-73
2022/07/27 11:31:08;;;;;;;;;;;;;;;25.21;77.33;96497.41;600753;236;64998;-73
2022/07/27 11:33:36;;;;;;;;;;;;;;;25.22;77.43;96493.59;600620;236;68779;-66
2022/07/27 11:36:06;;;;;;;;;;;;;;;25.24;77.19;96487.92;600514;236;68579;-66
2022/07/27 11:38:47;;;;;;;;;;;;;;;25.23;77.45;96489.80;600729;236;64959;-66
2022/07/27 11:41:23;;;;;;;;;;;;;;;25.23;77.98;96487.11;600425;236;66451;-66
2022/07/27 11:43:50;;;;;;;;;;;;;;;25.22;79.60;96487.43;600000;236;68432;-66
2022/07/27 11:46:21;;;;;;;;;;;;;;;25.22;79.58;96490.13;600548;236;65055;-67
2022/07/27 11:48:50;;;;;;;;;;;;;;;25.22;79.91;96482.05;600587;236;68684;-66
2022/07/27 11:51:18;;;;;;;;;;;;;;;25.21;79.87;96485.86;600651;236;69156;-68
2022/07/27 11:53:45;;;;;;;;;;;;;;;25.22;80.05;96482.84;600666;236;62851;-66
2022/07/27 11:56:14;;;;;;;;;;;;;;;25.21;80.03;96491.23;600657;236;68877;-67
2022/07/27 11:58:56;;;;;;;;;;;;;;;25.21;79.90;96481.27;600543;236;68586;-67
2022/07/27 12:01:30;;;;;;;;;;;;;;;25.20;79.76;96473.50;599956;236;62818;-69
2022/07/27 12:04:05;;;;;;;;;;;;;;;25.21;79.87;96483.95;600559;236;68858;-65
2022/07/27 12:06:33;;;;;;;;;;;;;;;25.22;75.69;96484.74;600637;236;68719;-68
2022/07/27 12:09:05;;;;;;;;;;;;;;;25.28;75.06;96478.11;600685;236;62741;-66
2022/07/27 12:11:49;;;;;;;;;;;;;;;25.27;76.13;96470.38;600803;236;68343;-67
2022/07/27 12:14:17;;;;;;;;;;;;;;;25.27;76.93;96476.54;600708;236;67438;-67
2022/07/27 12:16:45;;;;;;;;;;;;;;;25.28;77.19;96474.64;600627;236;65226;-67
2022/07/27 12:19:14;;;;;;;;;;;;;;;25.32;69.35;96480.96;600765;236;69008;-67
2022/07/27 12:21:43;;;;;;;;;;;;;;;25.40;71.42;96472.94;600482;236;68982;-63
2022/07/27 12:24:11;;;;;;;;;;;;;;;25.56;73.28;96475.96;600437;236;65049;-62
2022/07/27 12:26:38;;;;;;;;;;;;;;;25.49;74.94;96474.86;600759;236;69590;-70
2022/07/27 12:29:09;;;;;;;;;;;;;;;25.44;75.43;96465.81;600694;236;68662;-69
2022/07/27 12:31:39;;;;;;;;;;;;;;;25.43;75.49;96466.94;600076;236;65241;-69
2022/07/27 12:34:06;;;;;;;;;;;;;;;25.41;75.62;96468.34;599689;236;67468;-68
2022/07/27 12:36:35;;;;;;;;;;;;;;;25.40;76.03;96458.67;599881;236;68696;-69
2022/07/27 12:39:03;;;;;;;;;;;;;;;25.37;76.15;96452.05;600151;236;64905;-69
2022/07/27 12:41:38;;;;;;;;;;;;;;;25.38;76.43;96456.31;600500;236;68791;-69
2022/07/27 12:44:08;;;;;;;;;;;;;;;25.38;76.73;96455.53;595614;236;66460;-68
2022/07/27 12:46:55;;;;;;;;;;;;;;;25.38;76.93;96452.84;600567;236;63677;-69
2022/07/27 12:49:23;;;;;;;;;;;;;;;25.35;76.95;96443.50;600708;236;68672;-69
2022/07/27 12:51:51;;;;;;;;;;;;;;;25.37;77.16;96443.17;600598;236;68602;-68
2022/07/27 12:54:19;;;;;;;;;;;;;;;25.37;77.14;96441.30;600667;236;64921;-70
2022/07/27 12:56:48;;;;;;;;;;;;;;;25.41;72.63;96439.55;600450;236;68838;-70
2022/07/27 12:59:18;;;;;;;;;;;;;;;25.41;75.00;96438.77;600244;236;68278;-70